Time;durP1;ratioP1;P1;durP2;ratioP2;P2;SDS_P1;SDS_P2;PMS_P1;PMS_P2;Temp;Humidity;BMP_temperature;BMP_pressure;BME280_temperature;BME280_humidity;BME280_pressure;Samples;Min_cycle;Max_cycle;Signal;HPM_P1;HPM_P2
2022/03/07 00:01:27;;;;;;;6.18;2.97;;;1.90;99.90;;;;;;5068639;28;20477;-82
2022/03/07 00:03:56;;;;;;;7.30;3.05;;;1.90;99.90;;;;;;5060235;28;20102;-79
2022/03/07 00:06:22;;;;;;;7.72;3.45;;;1.80;99.90;;;;;;5052061;28;20078;-82
2022/03/07 00:08:49;;;;;;;9.93;3.00;;;1.80;99.90;;;;;;5067829;28;20044;-82
2022/03/07 00:11:16;;;;;;;4.63;2.85;;;1.80;99.90;;;;;;5068415;28;20574;-82
2022/03/07 00:13:42;;;;;;;8.43;2.97;;;1.70;99.90;;;;;;5068440;28;20127;-82
2022/03/07 00:16:08;;;;;;;6.18;2.80;;;1.60;99.90;;;;;;5067493;28;20119;-83
2022/03/07 00:18:34;;;;;;;6.47;3.45;;;1.70;99.90;;;;;;5068640;28;20451;-82
2022/03/07 00:20:59;;;;;;;10.00;3.50;;;1.60;99.90;;;;;;5067961;28;20119;-83
2022/03/07 00:23:25;;;;;;;8.25;3.70;;;1.60;99.90;;;;;;5067755;28;20045;-82
2022/03/07 00:25:50;;;;;;;11.93;4.20;;;1.50;99.90;;;;;;5068218;28;20384;-82
2022/03/07 00:28:17;;;;;;;8.40;3.83;;;1.50;99.90;;;;;;5051178;28;20102;-82
2022/03/07 00:30:42;;;;;;;9.80;3.63;;;1.40;99.90;;;;;;5067749;28;20044;-82
2022/03/07 00:33:08;;;;;;;6.80;4.28;;;1.80;99.90;;;;;;5068092;28;20729;-83
2022/03/07 00:35:34;;;;;;;6.57;3.67;;;1.40;99.90;;;;;;5069266;28;20388;-80
2022/03/07 00:37:59;;;;;;;7.57;3.55;;;2.30;99.90;;;;;;5067131;28;20128;-82
2022/03/07 00:40:25;;;;;;;7.10;3.45;;;1.30;99.90;;;;;;5068106;28;20055;-81
2022/03/07 00:42:51;;;;;;;10.38;4.15;;;1.40;99.90;;;;;;5066892;28;20404;-81
2022/03/07 00:45:17;;;;;;;12.82;3.90;;;1.30;99.90;;;;;;5050517;28;20154;-82
2022/03/07 00:47:43;;;;;;;6.03;3.80;;;1.30;99.90;;;;;;5068076;28;20127;-83
2022/03/07 00:50:09;;;;;;;10.65;3.63;;;1.40;99.90;;;;;;5066827;28;20116;-82
2022/03/07 00:52:35;;;;;;;9.05;4.05;;;1.30;99.90;;;;;;5051069;28;20082;-83
2022/03/07 00:55:01;;;;;;;8.70;3.80;;;1.30;99.90;;;;;;5067102;28;20511;-82
2022/03/07 00:57:27;;;;;;;10.40;3.50;;;1.20;99.90;;;;;;5050305;28;20032;-82
2022/03/07 00:59:53;;;;;;;7.72;3.47;;;1.10;99.90;;;;;;5067146;28;20046;-81
2022/03/07 01:02:19;;;;;;;6.68;2.60;;;1.20;99.90;;;;;;5067671;28;20407;-82
2022/03/07 01:04:45;;;;;;;5.70;2.75;;;1.90;99.90;;;;;;5066610;28;20048;-82
2022/03/07 01:07:10;;;;;;;9.88;3.50;;;1.20;99.90;;;;;;5050512;28;20490;-83
2022/03/07 01:09:36;;;;;;;7.00;3.35;;;1.20;99.90;;;;;;5050376;28;20036;-81
2022/03/07 01:12:02;;;;;;;5.55;3.30;;;1.30;99.90;;;;;;5066601;28;20036;-82
2022/03/07 01:14:28;;;;;;;8.40;3.25;;;1.30;99.90;;;;;;5067245;28;20049;-81
2022/03/07 01:16:53;;;;;;;6.35;2.85;;;1.30;99.90;;;;;;5050144;28;20037;-82
2022/03/07 01:19:19;;;;;;;5.63;2.95;;;1.30;99.90;;;;;;5050120;28;20052;-83
2022/03/07 01:21:45;;;;;;;3.75;1.92;;;3.30;99.90;;;;;;5067044;28;20043;-82
2022/03/07 01:24:11;;;;;;;5.47;2.63;;;1.30;99.90;;;;;;5066959;28;20042;-82
2022/03/07 01:26:37;;;;;;;5.55;2.63;;;1.30;99.90;;;;;;5066367;28;20048;-81
2022/03/07 01:29:05;;;;;;;5.15;2.38;;;2.20;99.90;;;;;;5066536;28;20059;-82
2022/03/07 01:31:30;;;;;;;4.20;2.47;;;1.10;99.90;;;;;;5067474;28;20064;-82
2022/03/07 01:33:56;;;;;;;4.93;2.20;;;-0.50;99.90;;;;;;5065788;28;20091;-82
2022/03/07 01:36:22;;;;;;;5.95;2.47;;;1.30;99.90;;;;;;5067114;28;20036;-81
2022/03/07 01:38:48;;;;;;;8.55;2.90;;;1.50;99.90;;;;;;5050350;28;20127;-80
2022/03/07 01:41:14;;;;;;;6.82;3.22;;;1.00;99.90;;;;;;5066229;28;20123;-82
2022/03/07 01:43:39;;;;;;;4.93;2.35;;;0.90;99.90;;;;;;5066617;28;20052;-82
2022/03/07 01:46:05;;;;;;;3.70;2.38;;;1.00;99.90;;;;;;5049256;28;20119;-81
2022/03/07 01:48:31;;;;;;;5.60;2.50;;;1.30;99.90;;;;;;5050129;28;20045;-79
2022/03/07 01:50:56;;;;;;;3.50;2.25;;;0.80;99.90;;;;;;5041707;28;20098;-82
2022/03/07 01:53:22;;;;;;;5.80;2.50;;;1.20;99.90;;;;;;5067825;28;20121;-82
2022/03/07 01:55:48;;;;;;;7.40;4.20;;;0.80;99.90;;;;;;5066569;28;20041;-79
2022/03/07 01:58:14;;;;;;;7.85;2.40;;;0.80;99.90;;;;;;5066751;28;20127;-82
2022/03/07 02:00:39;;;;;;;10.13;2.28;;;1.00;99.90;;;;;;5066302;28;20140;-80
2022/03/07 02:03:06;;;;;;;7.55;2.00;;;0.70;99.90;;;;;;5066840;28;20044;-82
2022/03/07 02:05:32;;;;;;;4.30;2.22;;;0.40;99.90;;;;;;5068202;28;20040;-81
2022/03/07 02:07:58;;;;;;;5.25;2.00;;;0.60;99.90;;;;;;5057419;28;20536;-82
2022/03/07 02:10:27;;;;;;;7.28;2.78;;;0.60;99.90;;;;;;5066870;28;20055;-82
2022/03/07 02:12:53;;;;;;;5.63;2.25;;;3.00;99.90;;;;;;5049608;28;20047;-79
2022/03/07 02:15:19;;;;;;;9.50;3.15;;;0.70;99.90;;;;;;5049083;28;20040;-83
2022/03/07 02:17:45;;;;;;;5.68;2.85;;;0.60;99.90;;;;;;5050092;28;20044;-81
2022/03/07 02:20:12;;;;;;;5.85;2.63;;;0.70;99.90;;;;;;5066777;28;20045;-82
2022/03/07 02:22:38;;;;;;;7.80;2.63;;;1.50;99.90;;;;;;5053543;28;20500;-82
2022/03/07 02:25:05;;;;;;;7.72;2.58;;;0.60;99.90;;;;;;5069848;28;20132;-83
2022/03/07 02:27:32;;;;;;;4.25;2.10;;;0.60;99.90;;;;;;5070672;28;20137;-81
2022/03/07 02:29:59;;;;;;;6.18;2.40;;;0.50;99.90;;;;;;5052513;28;20166;-83
2022/03/07 02:32:26;;;;;;;5.03;2.80;;;0.40;99.90;;;;;;5054043;28;20036;-81
2022/03/07 02:34:51;;;;;;;6.20;2.75;;;0.70;99.90;;;;;;5069906;28;20052;-82
2022/03/07 02:37:17;;;;;;;6.88;3.05;;;0.40;99.90;;;;;;5053115;28;20045;-83
2022/03/07 02:39:44;;;;;;;5.57;3.00;;;0.50;99.90;;;;;;5053957;28;20048;-78
2022/03/07 02:42:10;;;;;;;7.00;2.65;;;0.50;99.90;;;;;;5053343;28;20044;-82
2022/03/07 02:44:35;;;;;;;5.03;2.40;;;0.20;99.90;;;;;;5052501;28;20044;-83
2022/03/07 02:47:01;;;;;;;7.13;2.58;;;0.50;99.90;;;;;;5053010;28;20040;-82
2022/03/07 02:49:26;;;;;;;6.70;2.28;;;1.90;99.90;;;;;;5069292;28;20568;-83
2022/03/07 02:51:52;;;;;;;4.03;2.20;;;0.40;99.90;;;;;;5070224;28;20060;-82
2022/03/07 02:54:18;;;;;;;3.78;1.77;;;0.40;99.90;;;;;;5071221;28;20495;-83
2022/03/07 02:56:44;;;;;;;5.22;2.13;;;0.60;99.90;;;;;;5052337;28;20123;-81
2022/03/07 02:59:11;;;;;;;3.63;2.10;;;0.40;99.90;;;;;;5071039;28;20028;-83
2022/03/07 03:01:36;;;;;;;8.32;2.55;;;0.40;99.90;;;;;;5070954;28;20037;-82
2022/03/07 03:04:02;;;;;;;5.63;1.95;;;0.40;99.90;;;;;;5068895;28;20340;-83
2022/03/07 03:06:29;;;;;;;4.10;1.63;;;0.30;99.90;;;;;;5069893;28;20052;-83
2022/03/07 03:08:55;;;;;;;5.32;1.73;;;0.30;99.90;;;;;;5070457;28;20040;-83
2022/03/07 03:11:20;;;;;;;6.03;2.15;;;0.20;99.90;;;;;;5069129;28;20494;-83
2022/03/07 03:13:46;;;;;;;6.18;2.13;;;0.20;99.90;;;;;;5068985;28;20059;-82
2022/03/07 03:16:12;;;;;;;8.15;2.42;;;0.40;99.90;;;;;;5068939;28;20094;-82
2022/03/07 03:18:37;;;;;;;5.75;2.42;;;0.30;99.90;;;;;;5052511;28;20052;-81
2022/03/07 03:21:03;;;;;;;6.20;2.47;;;3.10;99.90;;;;;;5069131;28;20402;-79
2022/03/07 03:23:29;;;;;;;5.85;2.50;;;0.30;99.90;;;;;;5069210;28;20250;-83
2022/03/07 03:25:54;;;;;;;5.57;2.70;;;0.30;99.90;;;;;;5068541;28;20455;-82
2022/03/07 03:28:21;;;;;;;11.57;2.85;;;0.30;99.90;;;;;;5069300;28;20044;-83
2022/03/07 03:30:46;;;;;;;8.70;2.67;;;1.00;99.90;;;;;;5069131;28;20037;-82
2022/03/07 03:33:12;;;;;;;5.07;2.33;;;0.30;99.90;;;;;;5068110;28;20052;-83
2022/03/07 03:35:38;;;;;;;6.07;2.58;;;0.20;99.90;;;;;;5068936;28;20132;-82
2022/03/07 03:38:05;;;;;;;4.65;2.60;;;0.00;99.90;;;;;;5052317;28;20046;-82
2022/03/07 03:40:31;;;;;;;5.30;2.60;;;0.20;99.90;;;;;;5068884;28;20446;-82
2022/03/07 03:42:57;;;;;;;8.07;2.58;;;0.00;99.90;;;;;;5052066;28;20132;-82
2022/03/07 03:45:23;;;;;;;7.10;2.45;;;0.00;99.90;;;;;;5068941;28;20045;-82
2022/03/07 03:47:48;;;;;;;4.40;2.90;;;0.00;99.90;;;;;;5068184;28;20488;-82
2022/03/07 03:50:14;;;;;;;3.78;2.30;;;-0.10;99.90;;;;;;5052142;28;20072;-82
2022/03/07 03:52:41;;;;;;;5.70;2.13;;;-0.10;99.90;;;;;;5051480;28;20442;-83
2022/03/07 03:55:09;;;;;;;3.88;1.80;;;-0.10;99.90;;;;;;5068303;28;20173;-82
2022/03/07 03:57:35;;;;;;;4.28;2.45;;;-0.10;99.90;;;;;;5069472;28;20170;-82
2022/03/07 04:00:00;;;;;;;5.40;2.30;;;-0.10;99.90;;;;;;5051151;28;20063;-82
2022/03/07 04:02:26;;;;;;;3.42;2.15;;;-0.20;99.90;;;;;;5069062;28;20063;-83
2022/03/07 04:04:51;;;;;;;3.72;2.15;;;-0.20;99.90;;;;;;5068227;28;20052;-82
2022/03/07 04:07:20;;;;;;;4.47;1.77;;;-1.90;99.90;;;;;;5068316;28;20048;-82
2022/03/07 04:09:45;;;;;;;2.85;1.77;;;-0.20;99.90;;;;;;5068295;28;20045;-82
2022/03/07 04:12:11;;;;;;;5.60;2.55;;;-0.50;99.90;;;;;;5051553;28;20090;-79
2022/03/07 04:14:37;;;;;;;3.97;2.38;;;-0.30;99.90;;;;;;5068079;28;20068;-81
2022/03/07 04:17:02;;;;;;;3.97;1.73;;;-0.30;99.90;;;;;;5051162;28;20067;-83
2022/03/07 04:19:28;;;;;;;3.03;1.70;;;-0.30;99.90;;;;;;5068684;28;20041;-82
2022/03/07 04:21:53;;;;;;;4.72;1.90;;;-0.30;99.90;;;;;;5050409;28;20045;-82
2022/03/07 04:24:20;;;;;;;5.85;1.70;;;-0.50;99.90;;;;;;5051780;28;20036;-82
2022/03/07 04:26:46;;;;;;;5.05;1.60;;;0.00;99.90;;;;;;5067939;28;20186;-81
2022/03/07 04:29:12;;;;;;;9.20;2.30;;;-0.40;99.90;;;;;;5050789;28;20127;-82
2022/03/07 04:31:42;;;;;;;6.93;2.15;;;-0.60;99.90;;;;;;5051711;28;20040;-81
2022/03/07 04:34:09;;;;;;;3.63;1.80;;;-0.40;99.90;;;;;;5059673;28;20048;-82
2022/03/07 04:36:37;;;;;;;5.38;1.77;;;-0.60;99.90;;;;;;5067384;28;20116;-81
2022/03/07 04:39:07;;;;;;;6.78;2.50;;;0.20;99.90;;;;;;5067505;28;20177;-82
2022/03/07 04:41:33;;;;;;;4.70;1.58;;;0.60;99.90;;;;;;5068010;28;20517;-81
2022/03/07 04:43:59;;;;;;;2.60;2.03;;;0.30;99.90;;;;;;5049949;28;20037;-80
2022/03/07 04:46:25;;;;;;;5.25;2.15;;;0.00;99.90;;;;;;5067501;28;20050;-82
2022/03/07 04:48:51;;;;;;;5.35;2.25;;;-0.90;99.90;;;;;;5066934;28;20044;-81
2022/03/07 04:51:16;;;;;;;4.35;2.05;;;-0.50;99.90;;;;;;5067906;28;20044;-81
2022/03/07 04:53:42;;;;;;;3.58;2.00;;;-0.40;99.90;;;;;;5067916;28;20090;-82
2022/03/07 04:56:08;;;;;;;3.78;1.95;;;-0.40;99.90;;;;;;5066915;28;20048;-82
2022/03/07 04:58:34;;;;;;;3.35;1.67;;;-0.50;99.90;;;;;;5051158;28;20091;-82
2022/03/07 05:01:00;;;;;;;3.55;2.33;;;-0.60;99.90;;;;;;5067642;28;20508;-82
2022/03/07 05:03:25;;;;;;;3.80;1.98;;;-0.50;99.90;;;;;;5049908;28;20476;-81
2022/03/07 05:05:51;;;;;;;2.30;1.60;;;0.90;99.90;;;;;;5066953;28;20404;-82
2022/03/07 05:08:17;;;;;;;4.90;1.85;;;-0.50;99.90;;;;;;5050382;28;20044;-81
2022/03/07 05:10:43;;;;;;;5.95;2.00;;;0.40;99.90;;;;;;5067108;28;20476;-82
2022/03/07 05:13:09;;;;;;;5.50;2.53;;;-0.70;99.90;;;;;;5050145;28;20522;-80
2022/03/07 05:15:35;;;;;;;4.43;2.42;;;2.00;99.90;;;;;;5067589;28;20078;-82
2022/03/07 05:18:00;;;;;;;6.75;2.63;;;-0.50;99.90;;;;;;5066320;28;20617;-81
2022/03/07 05:20:26;;;;;;;3.30;1.80;;;-0.90;99.90;;;;;;5067669;28;20080;-81
2022/03/07 05:22:52;;;;;;;7.35;2.28;;;-0.30;99.90;;;;;;5067260;28;20524;-81
2022/03/07 05:25:20;;;;;;;4.40;2.00;;;-0.30;99.90;;;;;;5066302;28;20498;-81
2022/03/07 05:27:46;;;;;;;2.85;1.88;;;-0.50;99.90;;;;;;5050103;28;20057;-80
2022/03/07 05:30:15;;;;;;;2.30;1.40;;;-0.60;99.90;;;;;;5059103;28;20106;-82
2022/03/07 05:32:45;;;;;;;3.03;1.60;;;-0.10;99.90;;;;;;5049843;28;20545;-82
2022/03/07 05:35:11;;;;;;;5.90;1.80;;;-0.60;99.90;;;;;;5067089;28;20124;-82
2022/03/07 05:37:38;;;;;;;3.75;2.10;;;-0.70;99.90;;;;;;5050915;28;20097;-80
2022/03/07 05:40:06;;;;;;;6.63;2.58;;;-0.60;99.90;;;;;;5049412;28;20040;-82
2022/03/07 05:42:36;;;;;;;7.05;2.53;;;-0.60;99.90;;;;;;5067292;28;20040;-81
2022/03/07 05:45:04;;;;;;;5.82;1.98;;;-0.70;99.90;;;;;;5066478;28;20450;-81
2022/03/07 05:47:30;;;;;;;4.82;2.10;;;-0.60;99.90;;;;;;5049961;28;20411;-82
2022/03/07 05:49:55;;;;;;;3.38;1.98;;;-0.80;99.90;;;;;;5049925;28;20037;-82
2022/03/07 05:52:21;;;;;;;7.47;1.75;;;-0.80;99.90;;;;;;5066603;28;20040;-81
2022/03/07 05:54:47;;;;;;;4.35;2.08;;;-0.80;99.90;;;;;;5066617;28;20124;-81
2022/03/07 05:57:13;;;;;;;4.45;1.88;;;-0.70;99.90;;;;;;5070207;28;20131;-82
2022/03/07 05:59:39;;;;;;;2.97;1.60;;;-0.80;99.90;;;;;;5071028;28;20040;-80
2022/03/07 06:02:05;;;;;;;2.38;1.60;;;-1.00;99.90;;;;;;5071473;28;20385;-81
2022/03/07 06:04:30;;;;;;;5.55;2.10;;;-0.90;99.90;;;;;;5071181;28;20052;-81
2022/03/07 06:06:56;;;;;;;3.60;1.85;;;-0.90;99.90;;;;;;5053555;28;20059;-81
2022/03/07 06:09:21;;;;;;;3.78;2.20;;;0.00;99.90;;;;;;5070935;28;20043;-81
2022/03/07 06:11:47;;;;;;;4.68;1.92;;;-0.90;99.90;;;;;;5072066;28;20040;-81
2022/03/07 06:14:13;;;;;;;5.38;2.40;;;-1.00;99.90;;;;;;5069844;28;20052;-80
2022/03/07 06:16:38;;;;;;;8.85;2.28;;;-0.90;99.90;;;;;;5070884;28;20036;-81
2022/03/07 06:19:04;;;;;;;4.82;2.10;;;-1.00;99.90;;;;;;5053576;28;20047;-81
2022/03/07 06:21:30;;;;;;;4.10;1.70;;;-1.00;99.90;;;;;;5070510;28;20036;-81
2022/03/07 06:23:56;;;;;;;3.72;2.00;;;-1.00;99.90;;;;;;5070225;28;20042;-81
2022/03/07 06:26:23;;;;;;;5.78;1.92;;;-2.60;99.90;;;;;;5070762;28;20505;-81
2022/03/07 06:28:49;;;;;;;2.92;1.75;;;-1.10;99.90;;;;;;5069582;28;20291;-81
2022/03/07 06:31:15;;;;;;;4.13;2.55;;;-1.10;99.90;;;;;;5070180;28;20082;-81
2022/03/07 06:33:41;;;;;;;7.07;2.40;;;-1.00;99.90;;;;;;5070451;28;20036;-79
2022/03/07 06:36:07;;;;;;;5.60;2.78;;;-1.00;99.90;;;;;;5068933;28;20396;-81
2022/03/07 06:38:33;;;;;;;7.95;3.13;;;-1.00;99.90;;;;;;5070602;28;20498;-79
2022/03/07 06:40:59;;;;;;;8.23;3.65;;;-1.00;99.90;;;;;;5052866;28;20309;-79
2022/03/07 06:43:25;;;;;;;5.80;2.47;;;-0.10;99.90;;;;;;5069639;28;20056;-81
2022/03/07 06:45:52;;;;;;;7.30;2.35;;;-1.00;99.90;;;;;;5070086;28;20087;-78
2022/03/07 06:48:17;;;;;;;5.10;2.90;;;-0.40;99.90;;;;;;5071451;28;20102;-79
2022/03/07 06:50:43;;;;;;;3.67;2.72;;;-1.00;99.90;;;;;;5069689;28;20052;-79
2022/03/07 06:53:08;;;;;;;3.20;2.53;;;-1.00;99.90;;;;;;5070967;28;20036;-79
2022/03/07 06:55:34;;;;;;;3.88;2.35;;;-0.80;99.90;;;;;;5069275;28;20044;-78
2022/03/07 06:57:59;;;;;;;6.88;2.78;;;-0.80;99.90;;;;;;5070871;28;20036;-79
2022/03/07 07:00:25;;;;;;;5.90;2.85;;;-0.80;99.90;;;;;;5070132;28;20509;-81
2022/03/07 07:02:51;;;;;;;4.53;2.55;;;-0.80;99.90;;;;;;5068923;28;20071;-80
2022/03/07 07:05:16;;;;;;;7.82;3.15;;;-0.80;99.90;;;;;;5070709;28;20058;-79
2022/03/07 07:07:43;;;;;;;3.35;2.60;;;-0.80;99.90;;;;;;5068623;28;20380;-79
2022/03/07 07:10:09;;;;;;;7.43;2.97;;;-0.30;99.90;;;;;;5068757;28;20090;-78
2022/03/07 07:12:35;;;;;;;9.48;2.90;;;-0.70;99.90;;;;;;5069755;28;20126;-78
2022/03/07 07:15:02;;;;;;;3.95;2.75;;;-0.60;99.90;;;;;;5069064;28;20053;-79
2022/03/07 07:17:27;;;;;;;5.93;2.80;;;-0.70;99.90;;;;;;5069122;28;20463;-80
2022/03/07 07:19:53;;;;;;;4.18;2.95;;;-0.70;99.90;;;;;;5068931;28;20048;-78
2022/03/07 07:22:37;;;;;;;7.82;2.88;;;-0.60;99.90;;;;;;5069644;28;20043;-78
2022/03/07 07:25:05;;;;;;;7.00;2.78;;;-0.60;99.90;;;;;;5069305;28;20060;-79
2022/03/07 07:27:30;;;;;;;6.85;3.15;;;-0.60;99.90;;;;;;5052422;28;20053;-78
2022/03/07 07:29:56;;;;;;;7.82;3.55;;;-0.60;99.90;;;;;;5070060;28;20057;-79
2022/03/07 07:32:22;;;;;;;5.53;3.08;;;-0.60;99.90;;;;;;5068422;28;20032;-80
2022/03/07 07:34:48;;;;;;;7.40;4.22;;;0.20;99.90;;;;;;5068992;28;20178;-79
2022/03/07 07:37:14;;;;;;;10.52;3.28;;;-0.50;99.90;;;;;;5069041;28;20122;-79
2022/03/07 07:39:39;;;;;;;7.10;3.58;;;0.10;99.90;;;;;;5068731;28;20040;-79
2022/03/07 07:42:05;;;;;;;8.07;3.60;;;0.10;99.90;;;;;;5070738;28;20048;-79
2022/03/07 07:44:31;;;;;;;8.07;4.00;;;-0.30;99.90;;;;;;5073960;28;20032;-82
2022/03/07 07:46:56;;;;;;;9.23;4.72;;;-0.30;99.90;;;;;;5056959;28;20054;-87
2022/03/07 07:49:24;;;;;;;9.18;4.43;;;-0.20;99.90;;;;;;5071438;28;20074;-80
2022/03/07 07:51:51;;;;;;;9.40;4.60;;;-0.10;99.90;;;;;;5068353;28;20071;-77
2022/03/07 07:54:16;;;;;;;15.63;8.32;;;0.90;99.90;;;;;;5070292;28;20378;-80
2022/03/07 07:56:42;;;;;;;12.75;7.20;;;0.10;99.90;;;;;;5066216;28;20387;-80
2022/03/07 07:59:08;;;;;;;16.00;6.57;;;0.20;99.90;;;;;;5069423;28;20044;-82
2022/03/07 08:01:33;;;;;;;6.30;4.30;;;0.30;99.90;;;;;;5070856;28;20074;-82
2022/03/07 08:03:59;;;;;;;8.40;5.45;;;0.80;99.90;;;;;;5074752;28;20044;-81
2022/03/07 08:06:25;;;;;;;8.55;5.28;;;0.50;99.90;;;;;;5070267;28;20403;-82
2022/03/07 08:08:50;;;;;;;6.50;5.10;;;1.00;99.90;;;;;;5072464;28;20052;-80
2022/03/07 08:11:16;;;;;;;8.98;5.47;;;0.80;99.90;;;;;;5072715;28;20045;-83
2022/03/07 08:13:42;;;;;;;8.63;4.85;;;0.90;99.90;;;;;;5060266;28;20123;-81
2022/03/07 08:16:07;;;;;;;7.13;4.78;;;1.10;99.90;;;;;;5073243;28;20051;-81
2022/03/07 08:18:33;;;;;;;9.70;5.22;;;1.50;99.90;;;;;;5061428;28;20040;-82
2022/03/07 08:21:00;;;;;;;12.30;6.45;;;1.20;99.90;;;;;;5069298;28;20480;-81
2022/03/07 08:23:26;;;;;;;17.73;4.72;;;1.80;99.90;;;;;;5076782;28;20223;-83
2022/03/07 08:25:52;;;;;;;9.23;5.25;;;1.60;99.90;;;;;;5061730;28;20045;-81
2022/03/07 08:28:17;;;;;;;10.32;5.18;;;1.50;99.90;;;;;;5069413;28;20117;-80
2022/03/07 08:30:43;;;;;;;12.82;7.97;;;1.50;99.90;;;;;;5070748;28;20389;-81
2022/03/07 08:33:08;;;;;;;13.70;5.97;;;1.60;99.90;;;;;;5070316;28;20044;-82
2022/03/07 08:35:34;;;;;;;12.52;5.15;;;1.70;99.90;;;;;;5054515;28;20505;-83
2022/03/07 08:38:01;;;;;;;11.50;6.03;;;1.70;99.90;;;;;;5057069;28;20040;-82
2022/03/07 08:40:27;;;;;;;10.70;5.03;;;1.90;99.90;;;;;;5070693;28;20067;-79
2022/03/07 08:42:53;;;;;;;7.95;5.03;;;2.00;99.90;;;;;;5052054;28;20040;-80
2022/03/07 08:45:22;;;;;;;9.05;4.93;;;2.10;99.90;;;;;;5069723;28;20083;-81
2022/03/07 08:47:47;;;;;;;6.97;4.80;;;2.10;99.90;;;;;;5053164;28;20103;-80
2022/03/07 08:50:16;;;;;;;15.90;5.97;;;2.30;99.90;;;;;;5069091;28;20053;-81
2022/03/07 08:52:41;;;;;;;10.50;4.38;;;2.40;99.90;;;;;;5070145;28;20040;-80
2022/03/07 08:55:08;;;;;;;7.57;3.03;;;2.30;99.90;;;;;;5052057;28;20414;-81
2022/03/07 08:57:34;;;;;;;6.47;3.40;;;2.50;99.90;;;;;;5070103;28;20040;-83
2022/03/07 08:59:59;;;;;;;4.30;2.97;;;2.60;99.90;;;;;;5052759;28;20569;-80
2022/03/07 09:02:25;;;;;;;6.35;3.40;;;3.00;99.90;;;;;;5052212;28;20087;-80
2022/03/07 09:04:50;;;;;;;6.22;2.90;;;2.80;99.90;;;;;;5069188;28;20074;-80
2022/03/07 09:07:16;;;;;;;5.43;2.38;;;2.60;99.90;;;;;;5052156;28;20040;-80
2022/03/07 09:09:42;;;;;;;5.63;2.70;;;2.90;99.90;;;;;;5067855;28;20040;-82
2022/03/07 09:12:08;;;;;;;6.95;2.65;;;2.90;99.90;;;;;;5058768;28;20127;-82
2022/03/07 09:14:33;;;;;;;5.95;2.90;;;3.00;99.90;;;;;;5085920;28;20109;-82
2022/03/07 09:17:00;;;;;;;6.95;3.15;;;3.10;99.90;;;;;;5056829;28;20062;-83
2022/03/07 09:19:26;;;;;;;6.10;2.47;;;3.10;99.90;;;;;;5053176;28;20036;-81
2022/03/07 09:21:52;;;;;;;6.50;3.20;;;3.20;99.90;;;;;;5069049;28;20048;-82
2022/03/07 09:24:18;;;;;;;5.75;3.10;;;3.30;99.90;;;;;;5067673;28;20053;-79
2022/03/07 09:26:43;;;;;;;4.40;2.42;;;3.40;99.90;;;;;;5069012;28;20474;-81
2022/03/07 09:29:10;;;;;;;6.65;2.75;;;3.50;99.90;;;;;;5069172;28;20135;-81
2022/03/07 09:31:36;;;;;;;6.38;3.15;;;3.40;99.90;;;;;;5067911;28;20040;-84
2022/03/07 09:34:02;;;;;;;7.18;2.92;;;3.50;99.90;;;;;;5068395;28;20088;-80
2022/03/07 09:36:28;;;;;;;8.57;3.42;;;3.50;99.90;;;;;;5052553;28;20101;-80
2022/03/07 09:38:54;;;;;;;8.88;3.00;;;3.40;99.90;;;;;;5051592;28;20487;-80
2022/03/07 09:41:19;;;;;;;4.95;2.67;;;3.60;99.90;;;;;;5069336;28;20071;-81
2022/03/07 09:43:46;;;;;;;3.92;2.38;;;3.60;99.90;;;;;;5068392;28;20045;-85
2022/03/07 09:46:14;;;;;;;5.78;1.90;;;3.80;99.90;;;;;;5068022;28;20178;-81
2022/03/07 09:48:41;;;;;;;3.08;2.45;;;3.80;99.90;;;;;;5068841;28;20411;-81
2022/03/07 09:51:06;;;;;;;7.10;2.53;;;4.00;99.90;;;;;;5068540;28;20052;-81
2022/03/07 09:53:32;;;;;;;5.50;2.22;;;3.90;99.90;;;;;;5067954;28;20098;-85
2022/03/07 09:55:57;;;;;;;4.28;2.42;;;3.90;99.90;;;;;;5052099;28;20163;-81
2022/03/07 09:58:23;;;;;;;6.53;2.17;;;4.10;99.90;;;;;;5067992;28;20041;-82
2022/03/07 10:00:48;;;;;;;5.25;2.75;;;4.10;99.90;;;;;;5068510;28;20071;-81
2022/03/07 10:03:16;;;;;;;7.78;2.53;;;4.10;99.90;;;;;;5068773;28;20145;-85
2022/03/07 10:05:44;;;;;;;8.10;2.33;;;4.20;99.90;;;;;;5067141;28;20048;-80
2022/03/07 10:08:11;;;;;;;3.88;1.88;;;4.20;99.90;;;;;;5052804;28;20067;-81
2022/03/07 10:10:40;;;;;;;7.28;2.55;;;4.20;99.90;;;;;;5036846;28;20084;-85
2022/03/07 10:13:10;;;;;;;4.63;1.33;;;5.30;99.90;;;;;;5066840;28;20040;-84
2022/03/07 10:15:37;;;;;;;5.57;1.40;;;4.40;99.90;;;;;;5051742;28;20453;-81
2022/03/07 10:18:02;;;;;;;6.50;2.92;;;4.50;99.90;;;;;;5065994;28;20044;-80
2022/03/07 10:20:29;;;;;;;3.25;2.20;;;4.50;99.90;;;;;;5048846;28;20476;-81
2022/03/07 10:23:00;;;;;;;7.65;1.67;;;4.50;99.90;;;;;;5046927;28;20543;-83
2022/03/07 10:25:28;;;;;;;8.30;2.00;;;4.60;99.90;;;;;;5065842;28;20041;-81
2022/03/07 10:27:55;;;;;;;3.17;1.15;;;4.60;99.90;;;;;;5066699;28;20135;-82
2022/03/07 10:30:26;;;;;;;5.18;1.52;;;4.80;99.90;;;;;;5067185;28;20045;-83
2022/03/07 10:33:05;;;;;;;6.20;1.42;;;4.70;99.90;;;;;;5068248;28;20047;-80
2022/03/07 10:35:37;;;;;;;13.55;2.10;;;4.80;99.90;;;;;;5063601;28;20384;-81
2022/03/07 10:38:09;;;;;;;5.82;2.00;;;4.80;99.90;;;;;;5067757;28;20113;-81
2022/03/07 10:40:39;;;;;;;4.47;1.30;;;4.80;99.90;;;;;;5067784;28;20080;-81
2022/03/07 10:43:05;;;;;;;5.65;1.45;;;4.80;99.90;;;;;;5060837;28;20086;-81
2022/03/07 10:45:42;;;;;;;7.18;1.50;;;5.00;99.90;;;;;;5067561;28;20395;-81
2022/03/07 10:48:21;;;;;;;11.00;5.82;;;5.10;99.90;;;;;;4767063;28;10001345;-80
2022/03/07 10:50:49;;;;;;;7.18;2.10;;;5.20;99.90;;;;;;5061980;28;20700;-82
2022/03/07 10:53:14;;;;;;;7.15;1.40;;;5.20;99.90;;;;;;5049990;28;20076;-80
2022/03/07 10:55:40;;;;;;;5.28;2.00;;;5.20;99.90;;;;;;5052924;28;20084;-84
2022/03/07 10:58:11;;;;;;;2.97;1.80;;;5.20;99.90;;;;;;5069647;28;20033;-84
2022/03/07 11:00:50;;;;;;;4.35;1.35;;;5.20;99.90;;;;;;5052941;28;20481;-80
2022/03/07 11:03:21;;;;;;;4.65;1.40;;;5.30;99.90;;;;;;5068674;28;20050;-80
2022/03/07 11:05:47;;;;;;;7.75;1.48;;;5.30;99.90;;;;;;5051482;28;20039;-80
2022/03/07 11:08:15;;;;;;;9.95;1.95;;;5.40;99.90;;;;;;5066387;28;20051;-80
2022/03/07 11:10:49;;;;;;;5.13;1.48;;;5.50;99.90;;;;;;5068932;28;20127;-82
2022/03/07 11:13:16;;;;;;;6.40;1.55;;;5.60;99.90;;;;;;5069396;28;20040;-80
2022/03/07 11:15:43;;;;;;;2.15;1.40;;;5.50;99.90;;;;;;5066520;28;20048;-80
2022/03/07 11:18:14;;;;;;;3.95;1.50;;;5.50;99.90;;;;;;5049511;28;20045;-81
2022/03/07 11:20:44;;;;;;;3.90;1.00;;;5.50;99.90;;;;;;5067537;28;20049;-80
2022/03/07 11:23:17;;;;;;;2.17;1.02;;;5.50;99.90;;;;;;5060964;28;20993;-81
2022/03/07 11:25:44;;;;;;;21.30;12.18;;;5.50;99.90;;;;;;5066210;28;20106;-81
2022/03/07 11:28:10;;;;;;;5.30;2.80;;;5.50;99.90;;;;;;5070622;28;20106;-80
2022/03/07 11:30:42;;;;;;;1.73;1.13;;;5.40;99.90;;;;;;5070919;28;20392;-79
2022/03/07 11:33:19;;;;;;;4.22;1.40;;;5.50;99.90;;;;;;5049952;28;20131;-83
2022/03/07 11:35:50;;;;;;;4.40;1.13;;;5.50;99.90;;;;;;5054072;28;20051;-84
2022/03/07 11:38:28;;;;;;;6.63;1.55;;;5.60;99.90;;;;;;5070515;28;20044;-84
2022/03/07 11:41:14;;;;;;;3.83;1.00;;;5.80;99.90;;;;;;5062862;28;20048;-79
2022/03/07 11:43:51;;;;;;;6.47;0.82;;;6.00;99.90;;;;;;5070823;28;20066;-78
2022/03/07 11:46:27;;;;;;;3.00;1.00;;;8.00;99.90;;;;;;5071282;28;20036;-79
2022/03/07 11:48:52;;;;;;;4.18;1.00;;;6.40;99.90;;;;;;5053550;28;20048;-79
2022/03/07 11:51:23;;;;;;;5.82;1.17;;;6.40;99.90;;;;;;5070579;28;20041;-79
2022/03/07 11:53:51;;;;;;;2.67;1.10;;;6.50;99.90;;;;;;5053330;28;20059;-86
2022/03/07 11:56:24;;;;;;;3.38;0.98;;;6.60;99.90;;;;;;5070973;28;20040;-86
2022/03/07 11:58:53;;;;;;;6.05;0.95;;;6.80;99.90;;;;;;5053418;28;20049;-85
2022/03/07 12:01:21;;;;;;;2.60;0.80;;;8.00;99.90;;;;;;5052120;28;20036;-86
2022/03/07 12:03:47;;;;;;;1.92;0.75;;;7.20;99.90;;;;;;5050656;28;20044;-84
2022/03/07 12:06:14;;;;;;;2.38;0.55;;;7.20;99.90;;;;;;5068233;28;20515;-81
2022/03/07 12:08:43;;;;;;;1.48;0.38;;;7.40;99.90;;;;;;5026051;28;20407;-81
2022/03/07 12:11:10;;;;;;;2.50;0.50;;;7.50;99.90;;;;;;5071154;28;20147;-81
2022/03/07 12:13:47;;;;;;;3.00;0.70;;;7.60;99.90;;;;;;5071789;28;20027;-81
2022/03/07 12:16:26;;;;;;;4.60;1.17;;;7.70;99.90;;;;;;5071124;28;20190;-81
2022/03/07 12:19:09;;;;;;;1.38;0.70;;;7.90;99.90;;;;;;5066638;28;20037;-86
2022/03/07 12:21:36;;;;;;;2.58;0.80;;;8.00;99.90;;;;;;5049589;28;20560;-82
2022/03/07 12:24:05;;;;;;;2.03;0.90;;;8.20;99.90;;;;;;5067951;28;20041;-81
2022/03/07 12:26:30;;;;;;;2.80;0.70;;;8.20;99.90;;;;;;5060018;28;20087;-87
2022/03/07 12:28:56;;;;;;;1.17;0.57;;;8.30;99.90;;;;;;5067846;28;20083;-92
2022/03/07 12:31:22;;;;;;;3.42;0.57;;;8.40;99.90;;;;;;5068091;28;20040;-82
2022/03/07 12:33:48;;;;;;;4.35;0.70;;;8.70;99.90;;;;;;5036063;28;20556;-81
2022/03/07 12:36:15;;;;;;;2.67;0.60;;;8.90;99.90;;;;;;5057202;28;20048;-81
2022/03/07 12:38:55;;;;;;;1.27;0.60;;;9.00;99.90;;;;;;5064972;28;20518;-81
2022/03/07 12:41:30;;;;;;;4.32;0.70;;;9.10;99.90;;;;;;5043864;28;20044;-81
2022/03/07 12:43:55;;;;;;;2.70;0.88;;;9.10;99.90;;;;;;5035116;28;20409;-81
2022/03/07 12:46:21;;;;;;;3.58;0.82;;;9.10;99.90;;;;;;5072044;28;20385;-94
2022/03/07 12:48:47;;;;;;;3.20;0.70;;;9.30;99.90;;;;;;5064214;28;20043;-93
2022/03/07 12:51:16;;;;;;;1.35;0.50;;;9.40;99.90;;;;;;5075373;28;20052;-91